sensor_id;sensor_type;location;lat;lon;timestamp;temperature;humidity
70151;DHT22;57517;43.562;19.540;2022-12-07T00:00:54;281.70;2278.40
70151;DHT22;57517;43.562;19.540;2022-12-07T00:03:20;281.70;2278.40
70151;DHT22;57517;43.562;19.540;2022-12-07T00:05:45;281.70;2278.40
70151;DHT22;57517;43.562;19.540;2022-12-07T00:08:11;281.70;2278.40
70151;DHT22;57517;43.562;19.540;2022-12-07T00:10:37;281.70;2278.40
70151;DHT22;57517;43.562;19.540;2022-12-07T00:13:03;281.60;2278.40
70151;DHT22;57517;43.562;19.540;2022-12-07T00:15:29;281.60;2278.40
70151;DHT22;57517;43.562;19.540;2022-12-07T00:17:54;281.60;2278.40
70151;DHT22;57517;43.562;19.540;2022-12-07T00:20:20;281.60;2278.40
70151;DHT22;57517;43.562;19.540;2022-12-07T00:22:46;256.90;2252.80
70151;DHT22;57517;43.562;19.540;2022-12-07T00:25:12;256.90;2252.80
70151;DHT22;57517;43.562;19.540;2022-12-07T00:27:37;256.90;2252.80
70151;DHT22;57517;43.562;19.540;2022-12-07T00:30:04;256.90;2252.80
70151;DHT22;57517;43.562;19.540;2022-12-07T00:32:29;281.60;2278.40
70151;DHT22;57517;43.562;19.540;2022-12-07T00:34:55;281.60;2278.40
70151;DHT22;57517;43.562;19.540;2022-12-07T00:37:21;281.60;2278.40
70151;DHT22;57517;43.562;19.540;2022-12-07T00:39:47;281.60;2278.40
70151;DHT22;57517;43.562;19.540;2022-12-07T00:42:12;281.60;2278.40
70151;DHT22;57517;43.562;19.540;2022-12-07T00:44:38;281.60;2278.40
70151;DHT22;57517;43.562;19.540;2022-12-07T00:47:04;281.60;2278.40
70151;DHT22;57517;43.562;19.540;2022-12-07T00:49:30;281.60;2278.40
70151;DHT22;57517;43.562;19.540;2022-12-07T00:51:56;281.60;2278.40
70151;DHT22;57517;43.562;19.540;2022-12-07T00:54:21;281.60;2278.40
70151;DHT22;57517;43.562;19.540;2022-12-07T00:56:47;281.60;2278.40
70151;DHT22;57517;43.562;19.540;2022-12-07T00:59:13;281.70;2278.40
70151;DHT22;57517;43.562;19.540;2022-12-07T01:01:42;281.70;2278.40
70151;DHT22;57517;43.562;19.540;2022-12-07T01:04:08;281.60;2278.40
70151;DHT22;57517;43.562;19.540;2022-12-07T01:06:34;281.60;2278.40
70151;DHT22;57517;43.562;19.540;2022-12-07T01:09:00;281.70;2278.40
70151;DHT22;57517;43.562;19.540;2022-12-07T01:11:28;281.60;2278.40
70151;DHT22;57517;43.562;19.540;2022-12-07T01:13:56;281.60;2278.40
70151;DHT22;57517;43.562;19.540;2022-12-07T01:16:25;256.90;2252.80
70151;DHT22;57517;43.562;19.540;2022-12-07T01:18:52;281.60;2278.40
70151;DHT22;57517;43.562;19.540;2022-12-07T01:21:21;281.60;2278.40
70151;DHT22;57517;43.562;19.540;2022-12-07T01:23:47;281.60;2278.40
70151;DHT22;57517;43.562;19.540;2022-12-07T01:26:15;281.60;2278.40
70151;DHT22;57517;43.562;19.540;2022-12-07T01:28:42;281.60;2278.40
70151;DHT22;57517;43.562;19.540;2022-12-07T01:31:10;281.70;2278.40
70151;DHT22;57517;43.562;19.540;2022-12-07T01:33:44;281.70;2278.40
70151;DHT22;57517;43.562;19.540;2022-12-07T01:36:18;281.70;2278.40
70151;DHT22;57517;43.562;19.540;2022-12-07T01:38:46;281.70;2278.40
70151;DHT22;57517;43.562;19.540;2022-12-07T01:41:13;281.70;2278.40
70151;DHT22;57517;43.562;19.540;2022-12-07T01:44:15;281.70;2278.40
70151;DHT22;57517;43.562;19.540;2022-12-07T01:46:44;281.60;2278.40
70151;DHT22;57517;43.562;19.540;2022-12-07T01:49:17;281.60;2278.40
70151;DHT22;57517;43.562;19.540;2022-12-07T01:51:44;281.60;2278.40
70151;DHT22;57517;43.562;19.540;2022-12-07T01:54:12;281.60;2278.40
70151;DHT22;57517;43.562;19.540;2022-12-07T01:56:40;281.60;2278.40
70151;DHT22;57517;43.562;19.540;2022-12-07T01:59:08;281.60;2278.40
70151;DHT22;57517;43.562;19.540;2022-12-07T02:01:34;281.60;2278.40
70151;DHT22;57517;43.562;19.540;2022-12-07T02:04:00;281.60;2278.40
70151;DHT22;57517;43.562;19.540;2022-12-07T02:06:26;281.60;2278.40
70151;DHT22;57517;43.562;19.540;2022-12-07T02:08:53;281.60;2278.40
70151;DHT22;57517;43.562;19.540;2022-12-07T02:11:19;281.60;2278.40
70151;DHT22;57517;43.562;19.540;2022-12-07T02:13:45;281.60;2278.40
70151;DHT22;57517;43.562;19.540;2022-12-07T02:22:51;281.60;2278.40
70151;DHT22;57517;43.562;19.540;2022-12-07T02:25:09;281.60;2278.40
70151;DHT22;57517;43.562;19.540;2022-12-07T02:30:31;281.70;2278.40
70151;DHT22;57517;43.562;19.540;2022-12-07T02:35:49;281.70;2278.40
70151;DHT22;57517;43.562;19.540;2022-12-07T02:38:22;281.80;2278.40
70151;DHT22;57517;43.562;19.540;2022-12-07T02:40:54;281.80;2278.40
70151;DHT22;57517;43.562;19.540;2022-12-07T02:43:26;281.80;2278.40
70151;DHT22;57517;43.562;19.540;2022-12-07T02:45:59;281.70;2278.40
70151;DHT22;57517;43.562;19.540;2022-12-07T02:48:27;281.70;2278.40
70151;DHT22;57517;43.562;19.540;2022-12-07T02:50:54;281.80;2278.40
70151;DHT22;57517;43.562;19.540;2022-12-07T02:53:34;281.80;2278.40
70151;DHT22;57517;43.562;19.540;2022-12-07T02:59:02;281.80;2278.40
70151;DHT22;57517;43.562;19.540;2022-12-07T03:05:03;281.80;2278.40
70151;DHT22;57517;43.562;19.540;2022-12-07T03:07:48;281.80;2278.40
70151;DHT22;57517;43.562;19.540;2022-12-07T03:18:09;281.80;2278.40
70151;DHT22;57517;43.562;19.540;2022-12-07T03:20:37;281.80;2278.40
70151;DHT22;57517;43.562;19.540;2022-12-07T03:23:08;281.80;2278.40
70151;DHT22;57517;43.562;19.540;2022-12-07T03:25:40;281.80;2278.40
70151;DHT22;57517;43.562;19.540;2022-12-07T03:28:07;281.80;2278.40
70151;DHT22;57517;43.562;19.540;2022-12-07T03:30:51;281.80;2278.40
70151;DHT22;57517;43.562;19.540;2022-12-07T03:33:29;281.80;2278.40
70151;DHT22;57517;43.562;19.540;2022-12-07T03:39:34;281.80;2278.40
70151;DHT22;57517;43.562;19.540;2022-12-07T03:41:40;281.80;2278.40
70151;DHT22;57517;43.562;19.540;2022-12-07T03:44:06;281.80;2278.40
70151;DHT22;57517;43.562;19.540;2022-12-07T03:46:37;281.80;2278.40
70151;DHT22;57517;43.562;19.540;2022-12-07T03:57:15;281.90;2278.40
70151;DHT22;57517;43.562;19.540;2022-12-07T03:59:43;281.90;2278.40
70151;DHT22;57517;43.562;19.540;2022-12-07T04:02:11;281.80;2278.40
70151;DHT22;57517;43.562;19.540;2022-12-07T04:04:38;281.80;2278.40
70151;DHT22;57517;43.562;19.540;2022-12-07T04:07:05;281.80;2278.40
70151;DHT22;57517;43.562;19.540;2022-12-07T04:09:31;281.80;2278.40
70151;DHT22;57517;43.562;19.540;2022-12-07T04:11:57;281.90;2278.40
70151;DHT22;57517;43.562;19.540;2022-12-07T04:14:22;281.90;2278.40
70151;DHT22;57517;43.562;19.540;2022-12-07T04:16:53;281.90;2278.40
70151;DHT22;57517;43.562;19.540;2022-12-07T04:19:24;281.90;2278.40
70151;DHT22;57517;43.562;19.540;2022-12-07T04:21:50;281.90;2278.40
70151;DHT22;57517;43.562;19.540;2022-12-07T04:24:16;281.90;2278.40
70151;DHT22;57517;43.562;19.540;2022-12-07T04:26:43;281.90;2278.40
70151;DHT22;57517;43.562;19.540;2022-12-07T04:29:09;281.90;2278.40
70151;DHT22;57517;43.562;19.540;2022-12-07T04:31:36;281.90;2278.40
70151;DHT22;57517;43.562;19.540;2022-12-07T04:34:02;281.90;2278.40
70151;DHT22;57517;43.562;19.540;2022-12-07T04:36:28;281.90;2278.40
70151;DHT22;57517;43.562;19.540;2022-12-07T04:38:54;281.90;2278.40
70151;DHT22;57517;43.562;19.540;2022-12-07T04:41:21;281.90;2278.40
70151;DHT22;57517;43.562;19.540;2022-12-07T04:44:01;281.90;2278.40
70151;DHT22;57517;43.562;19.540;2022-12-07T04:46:28;281.90;2278.40
70151;DHT22;57517;43.562;19.540;2022-12-07T04:48:54;281.80;2278.40
70151;DHT22;57517;43.562;19.540;2022-12-07T04:51:25;281.80;2278.40
70151;DHT22;57517;43.562;19.540;2022-12-07T04:53:52;281.80;2278.40
70151;DHT22;57517;43.562;19.540;2022-12-07T04:56:19;281.80;2278.40
70151;DHT22;57517;43.562;19.540;2022-12-07T04:58:46;281.80;2278.40
70151;DHT22;57517;43.562;19.540;2022-12-07T05:01:12;281.90;2278.40
70151;DHT22;57517;43.562;19.540;2022-12-07T05:03:38;281.90;2278.40
70151;DHT22;57517;43.562;19.540;2022-12-07T05:06:04;281.90;2278.40
70151;DHT22;57517;43.562;19.540;2022-12-07T05:08:32;281.90;2278.40
70151;DHT22;57517;43.562;19.540;2022-12-07T05:10:58;281.90;2278.40
70151;DHT22;57517;43.562;19.540;2022-12-07T05:13:24;281.80;2278.40
70151;DHT22;57517;43.562;19.540;2022-12-07T05:15:50;281.80;2278.40
70151;DHT22;57517;43.562;19.540;2022-12-07T05:18:16;281.80;2278.40
70151;DHT22;57517;43.562;19.540;2022-12-07T05:20:42;281.80;2278.40
70151;DHT22;57517;43.562;19.540;2022-12-07T05:23:08;281.90;2278.40
70151;DHT22;57517;43.562;19.540;2022-12-07T05:25:34;281.90;2278.40
70151;DHT22;57517;43.562;19.540;2022-12-07T05:28:00;281.90;2278.40
70151;DHT22;57517;43.562;19.540;2022-12-07T05:30:26;281.90;2278.40
70151;DHT22;57517;43.562;19.540;2022-12-07T05:32:52;282.00;2278.40
70151;DHT22;57517;43.562;19.540;2022-12-07T05:35:18;282.00;2278.40
70151;DHT22;57517;43.562;19.540;2022-12-07T05:37:45;282.00;2278.40
70151;DHT22;57517;43.562;19.540;2022-12-07T05:40:12;282.00;2278.40
70151;DHT22;57517;43.562;19.540;2022-12-07T05:42:38;282.00;2278.40
70151;DHT22;57517;43.562;19.540;2022-12-07T05:45:05;282.00;2278.40
70151;DHT22;57517;43.562;19.540;2022-12-07T05:47:31;281.90;2278.40
70151;DHT22;57517;43.562;19.540;2022-12-07T05:49:57;282.00;2278.40
70151;DHT22;57517;43.562;19.540;2022-12-07T05:52:23;282.00;2278.40
70151;DHT22;57517;43.562;19.540;2022-12-07T05:54:48;282.00;2278.40
70151;DHT22;57517;43.562;19.540;2022-12-07T05:57:15;282.00;2278.40
70151;DHT22;57517;43.562;19.540;2022-12-07T05:59:41;281.90;2278.40
70151;DHT22;57517;43.562;19.540;2022-12-07T06:02:10;281.80;2278.40
70151;DHT22;57517;43.562;19.540;2022-12-07T06:04:41;281.80;2278.40
70151;DHT22;57517;43.562;19.540;2022-12-07T06:07:08;281.90;2278.40
70151;DHT22;57517;43.562;19.540;2022-12-07T06:09:35;281.80;2278.40
70151;DHT22;57517;43.562;19.540;2022-12-07T06:12:01;281.90;2278.40
70151;DHT22;57517;43.562;19.540;2022-12-07T06:14:45;281.90;2278.40
70151;DHT22;57517;43.562;19.540;2022-12-07T06:17:12;282.00;2278.40
70151;DHT22;57517;43.562;19.540;2022-12-07T06:19:38;282.00;2278.40
70151;DHT22;57517;43.562;19.540;2022-12-07T06:22:04;282.00;2278.40
70151;DHT22;57517;43.562;19.540;2022-12-07T06:24:32;282.00;2278.40
70151;DHT22;57517;43.562;19.540;2022-12-07T06:26:58;282.00;2278.40
70151;DHT22;57517;43.562;19.540;2022-12-07T06:29:24;282.00;2278.40
70151;DHT22;57517;43.562;19.540;2022-12-07T06:31:50;282.00;2278.40
70151;DHT22;57517;43.562;19.540;2022-12-07T06:34:18;282.00;2278.40
70151;DHT22;57517;43.562;19.540;2022-12-07T06:36:45;282.00;2278.40
70151;DHT22;57517;43.562;19.540;2022-12-07T06:39:11;281.90;2278.40
70151;DHT22;57517;43.562;19.540;2022-12-07T06:41:38;281.90;2278.40
70151;DHT22;57517;43.562;19.540;2022-12-07T06:44:05;281.90;2278.40
70151;DHT22;57517;43.562;19.540;2022-12-07T06:46:31;281.90;2278.40
70151;DHT22;57517;43.562;19.540;2022-12-07T06:48:57;281.90;2278.40
70151;DHT22;57517;43.562;19.540;2022-12-07T06:51:23;281.90;2278.40
70151;DHT22;57517;43.562;19.540;2022-12-07T06:53:49;281.80;2278.40
70151;DHT22;57517;43.562;19.540;2022-12-07T06:56:15;281.70;2278.40
70151;DHT22;57517;43.562;19.540;2022-12-07T06:58:41;281.60;2278.40
70151;DHT22;57517;43.562;19.540;2022-12-07T07:01:11;281.60;2278.40
70151;DHT22;57517;43.562;19.540;2022-12-07T07:03:38;281.60;2278.40
70151;DHT22;57517;43.562;19.540;2022-12-07T07:06:04;281.70;2278.40
70151;DHT22;57517;43.562;19.540;2022-12-07T07:08:31;281.80;2278.40
70151;DHT22;57517;43.562;19.540;2022-12-07T07:10:56;281.70;2278.40
70151;DHT22;57517;43.562;19.540;2022-12-07T07:13:22;281.70;2278.40
70151;DHT22;57517;43.562;19.540;2022-12-07T07:15:48;281.80;2278.40
70151;DHT22;57517;43.562;19.540;2022-12-07T07:18:14;281.80;2278.40
70151;DHT22;57517;43.562;19.540;2022-12-07T07:20:40;281.80;2278.40
70151;DHT22;57517;43.562;19.540;2022-12-07T07:23:06;281.80;2278.40
70151;DHT22;57517;43.562;19.540;2022-12-07T07:25:32;281.90;2278.40
70151;DHT22;57517;43.562;19.540;2022-12-07T07:27:58;281.90;2278.40
70151;DHT22;57517;43.562;19.540;2022-12-07T07:30:25;281.90;2278.40
70151;DHT22;57517;43.562;19.540;2022-12-07T07:32:51;281.90;2278.40
70151;DHT22;57517;43.562;19.540;2022-12-07T07:35:16;282.00;2278.40
70151;DHT22;57517;43.562;19.540;2022-12-07T07:37:42;281.90;2278.40
70151;DHT22;57517;43.562;19.540;2022-12-07T07:40:09;282.00;2278.40
70151;DHT22;57517;43.562;19.540;2022-12-07T07:42:35;282.00;2278.40
70151;DHT22;57517;43.562;19.540;2022-12-07T07:45:01;282.00;2278.40
70151;DHT22;57517;43.562;19.540;2022-12-07T07:47:27;282.00;2278.40
70151;DHT22;57517;43.562;19.540;2022-12-07T07:49:54;282.00;2278.40
70151;DHT22;57517;43.562;19.540;2022-12-07T07:52:20;282.00;2278.40
70151;DHT22;57517;43.562;19.540;2022-12-07T07:54:46;282.00;2278.40
70151;DHT22;57517;43.562;19.540;2022-12-07T07:57:11;282.10;2278.40
70151;DHT22;57517;43.562;19.540;2022-12-07T07:59:37;282.10;2278.40
70151;DHT22;57517;43.562;19.540;2022-12-07T08:02:03;282.10;2278.40
70151;DHT22;57517;43.562;19.540;2022-12-07T08:04:29;282.10;2278.40
70151;DHT22;57517;43.562;19.540;2022-12-07T08:06:54;282.10;2278.40
70151;DHT22;57517;43.562;19.540;2022-12-07T08:09:20;282.20;2278.40
70151;DHT22;57517;43.562;19.540;2022-12-07T08:11:46;282.20;2278.40
70151;DHT22;57517;43.562;19.540;2022-12-07T08:14:12;282.30;2278.40
70151;DHT22;57517;43.562;19.540;2022-12-07T08:16:37;282.30;2278.40
70151;DHT22;57517;43.562;19.540;2022-12-07T08:19:05;282.30;2278.40
70151;DHT22;57517;43.562;19.540;2022-12-07T08:21:30;282.30;2278.40
70151;DHT22;57517;43.562;19.540;2022-12-07T08:23:57;282.30;2278.40
70151;DHT22;57517;43.562;19.540;2022-12-07T08:26:23;282.40;2278.40
70151;DHT22;57517;43.562;19.540;2022-12-07T08:28:48;282.50;2278.40
70151;DHT22;57517;43.562;19.540;2022-12-07T08:31:16;282.50;2278.40
70151;DHT22;57517;43.562;19.540;2022-12-07T08:33:45;282.50;2278.40
70151;DHT22;57517;43.562;19.540;2022-12-07T08:36:12;282.50;2278.40
70151;DHT22;57517;43.562;19.540;2022-12-07T08:38:39;282.50;2278.40
70151;DHT22;57517;43.562;19.540;2022-12-07T08:41:06;307.20;2304.00
70151;DHT22;57517;43.562;19.540;2022-12-07T08:43:32;282.50;2278.40
70151;DHT22;57517;43.562;19.540;2022-12-07T08:46:37;282.50;2278.40
70151;DHT22;57517;43.562;19.540;2022-12-07T08:49:11;282.50;2278.40
70151;DHT22;57517;43.562;19.540;2022-12-07T08:51:37;282.50;2278.40
70151;DHT22;57517;43.562;19.540;2022-12-07T08:54:08;282.50;2278.40
70151;DHT22;57517;43.562;19.540;2022-12-07T08:56:34;282.50;2278.40
70151;DHT22;57517;43.562;19.540;2022-12-07T08:59:02;307.20;2304.00
70151;DHT22;57517;43.562;19.540;2022-12-07T09:01:28;307.30;2304.00
70151;DHT22;57517;43.562;19.540;2022-12-07T09:03:55;307.20;2304.00
70151;DHT22;57517;43.562;19.540;2022-12-07T09:06:20;282.50;2278.40
70151;DHT22;57517;43.562;19.540;2022-12-07T09:08:49;282.50;2278.40
70151;DHT22;57517;43.562;19.540;2022-12-07T09:11:16;307.20;2304.00
70151;DHT22;57517;43.562;19.540;2022-12-07T09:13:41;307.30;2304.00
70151;DHT22;57517;43.562;19.540;2022-12-07T09:16:07;307.30;2304.00
70151;DHT22;57517;43.562;19.540;2022-12-07T09:18:33;307.40;2304.00
70151;DHT22;57517;43.562;19.540;2022-12-07T09:20:59;307.40;2304.00
70151;DHT22;57517;43.562;19.540;2022-12-07T09:23:25;307.40;2304.00
70151;DHT22;57517;43.562;19.540;2022-12-07T09:25:51;307.50;2304.00
70151;DHT22;57517;43.562;19.540;2022-12-07T09:28:16;307.60;2304.00
70151;DHT22;57517;43.562;19.540;2022-12-07T09:30:47;307.70;2304.00
70151;DHT22;57517;43.562;19.540;2022-12-07T09:33:13;307.70;2304.00
70151;DHT22;57517;43.562;19.540;2022-12-07T09:35:45;307.70;2304.00
70151;DHT22;57517;43.562;19.540;2022-12-07T09:38:11;307.70;2304.00
70151;DHT22;57517;43.562;19.540;2022-12-07T09:40:37;307.70;2304.00
70151;DHT22;57517;43.562;19.540;2022-12-07T09:43:03;307.70;2304.00
70151;DHT22;57517;43.562;19.540;2022-12-07T09:45:34;307.70;2304.00
70151;DHT22;57517;43.562;19.540;2022-12-07T09:48:02;307.70;2304.00
70151;DHT22;57517;43.562;19.540;2022-12-07T09:50:29;307.70;2304.00
70151;DHT22;57517;43.562;19.540;2022-12-07T09:53:25;307.70;2304.00
70151;DHT22;57517;43.562;19.540;2022-12-07T09:55:50;307.70;2304.00
70151;DHT22;57517;43.562;19.540;2022-12-07T09:58:26;307.70;2304.00
70151;DHT22;57517;43.562;19.540;2022-12-07T10:01:19;307.70;2304.00
70151;DHT22;57517;43.562;19.540;2022-12-07T10:03:53;307.70;2304.00
70151;DHT22;57517;43.562;19.540;2022-12-07T10:06:19;307.80;2304.00
70151;DHT22;57517;43.562;19.540;2022-12-07T10:08:44;307.80;2304.00
70151;DHT22;57517;43.562;19.540;2022-12-07T10:11:10;307.80;2304.00
70151;DHT22;57517;43.562;19.540;2022-12-07T10:13:42;307.70;2304.00
70151;DHT22;57517;43.562;19.540;2022-12-07T10:16:39;307.70;2304.00
70151;DHT22;57517;43.562;19.540;2022-12-07T10:19:32;307.70;2304.00
70151;DHT22;57517;43.562;19.540;2022-12-07T10:22:07;307.70;2304.00
70151;DHT22;57517;43.562;19.540;2022-12-07T10:24:34;307.70;2304.00
70151;DHT22;57517;43.562;19.540;2022-12-07T10:27:02;307.70;2304.00
70151;DHT22;57517;43.562;19.540;2022-12-07T10:29:34;307.70;2304.00
70151;DHT22;57517;43.562;19.540;2022-12-07T10:34:41;307.80;2304.00
70151;DHT22;57517;43.562;19.540;2022-12-07T10:39:47;307.70;2304.00
70151;DHT22;57517;43.562;19.540;2022-12-07T10:42:21;307.70;2304.00
70151;DHT22;57517;43.562;19.540;2022-12-07T10:44:49;307.70;2304.00
70151;DHT22;57517;43.562;19.540;2022-12-07T10:56:29;307.80;2304.00
70151;DHT22;57517;43.562;19.540;2022-12-07T11:01:47;307.80;2304.00
70151;DHT22;57517;43.562;19.540;2022-12-07T11:07:17;307.90;2304.00
70151;DHT22;57517;43.562;19.540;2022-12-07T11:17:53;307.90;2304.00
70151;DHT22;57517;43.562;19.540;2022-12-07T11:20:42;307.90;2304.00
70151;DHT22;57517;43.562;19.540;2022-12-07T11:23:21;307.90;2304.00
70151;DHT22;57517;43.562;19.540;2022-12-07T11:26:00;307.90;2304.00
70151;DHT22;57517;43.562;19.540;2022-12-07T11:33:47;307.90;2304.00
70151;DHT22;57517;43.562;19.540;2022-12-07T11:36:33;307.90;2304.00
70151;DHT22;57517;43.562;19.540;2022-12-07T11:41:41;307.90;2304.00
70151;DHT22;57517;43.562;19.540;2022-12-07T11:47:10;308.00;2304.00
70151;DHT22;57517;43.562;19.540;2022-12-07T11:49:51;308.00;2304.00
70151;DHT22;57517;43.562;19.540;2022-12-07T11:52:27;308.00;2304.00
70151;DHT22;57517;43.562;19.540;2022-12-07T11:54:58;308.00;2304.00
70151;DHT22;57517;43.562;19.540;2022-12-07T11:57:39;308.10;2304.00
70151;DHT22;57517;43.562;19.540;2022-12-07T12:00:14;308.10;2304.00
70151;DHT22;57517;43.562;19.540;2022-12-07T12:02:58;308.10;2304.00
70151;DHT22;57517;43.562;19.540;2022-12-07T12:05:26;308.10;2304.00
70151;DHT22;57517;43.562;19.540;2022-12-07T12:08:21;308.00;2304.00
70151;DHT22;57517;43.562;19.540;2022-12-07T12:22:19;332.80;2329.60
70151;DHT22;57517;43.562;19.540;2022-12-07T12:24:53;332.80;2329.60
70151;DHT22;57517;43.562;19.540;2022-12-07T12:27:27;332.90;2329.60
70151;DHT22;57517;43.562;19.540;2022-12-07T12:29:58;333.00;2329.60
70151;DHT22;57517;43.562;19.540;2022-12-07T12:37:53;333.10;2329.60
70151;DHT22;57517;43.562;19.540;2022-12-07T12:42:52;333.20;2329.60
70151;DHT22;57517;43.562;19.540;2022-12-07T12:45:29;333.20;2329.60
70151;DHT22;57517;43.562;19.540;2022-12-07T12:50:41;333.10;2329.60
70151;DHT22;57517;43.562;19.540;2022-12-07T12:53:20;333.10;2329.60
70151;DHT22;57517;43.562;19.540;2022-12-07T12:58:39;333.20;2329.60
70151;DHT22;57517;43.562;19.540;2022-12-07T13:03:58;333.20;2329.60
70151;DHT22;57517;43.562;19.540;2022-12-07T13:08:51;333.10;2329.60
70151;DHT22;57517;43.562;19.540;2022-12-07T13:11:20;333.10;2329.60
70151;DHT22;57517;43.562;19.540;2022-12-07T13:13:51;333.10;2329.60
70151;DHT22;57517;43.562;19.540;2022-12-07T13:18:42;333.10;2329.60
70151;DHT22;57517;43.562;19.540;2022-12-07T13:29:11;332.90;2329.60
70151;DHT22;57517;43.562;19.540;2022-12-07T13:34:38;308.10;2304.00
70151;DHT22;57517;43.562;19.540;2022-12-07T13:39:49;308.10;2304.00
70151;DHT22;57517;43.562;19.540;2022-12-07T13:42:33;308.10;2304.00
70151;DHT22;57517;43.562;19.540;2022-12-07T13:45:20;308.00;2304.00
70151;DHT22;57517;43.562;19.540;2022-12-07T13:47:52;308.00;2304.00
70151;DHT22;57517;43.562;19.540;2022-12-07T13:50:27;308.00;2304.00
70151;DHT22;57517;43.562;19.540;2022-12-07T13:52:58;307.90;2304.00
70151;DHT22;57517;43.562;19.540;2022-12-07T13:55:25;307.90;2304.00
70151;DHT22;57517;43.562;19.540;2022-12-07T13:57:53;307.90;2304.00
70151;DHT22;57517;43.562;19.540;2022-12-07T14:00:22;307.90;2304.00
70151;DHT22;57517;43.562;19.540;2022-12-07T14:05:32;307.90;2304.00
70151;DHT22;57517;43.562;19.540;2022-12-07T14:08:02;307.90;2304.00
70151;DHT22;57517;43.562;19.540;2022-12-07T14:10:34;307.90;2304.00
70151;DHT22;57517;43.562;19.540;2022-12-07T14:13:02;307.90;2304.00
70151;DHT22;57517;43.562;19.540;2022-12-07T14:15:31;307.90;2304.00
70151;DHT22;57517;43.562;19.540;2022-12-07T14:17:58;308.00;2304.00
70151;DHT22;57517;43.562;19.540;2022-12-07T14:20:37;308.00;2304.00
70151;DHT22;57517;43.562;19.540;2022-12-07T14:23:04;308.00;2304.00
70151;DHT22;57517;43.562;19.540;2022-12-07T14:25:47;308.00;2304.00
70151;DHT22;57517;43.562;19.540;2022-12-07T14:30:51;308.00;2304.00
70151;DHT22;57517;43.562;19.540;2022-12-07T14:33:18;308.00;2304.00
70151;DHT22;57517;43.562;19.540;2022-12-07T14:35:44;308.10;2304.00
70151;DHT22;57517;43.562;19.540;2022-12-07T14:38:10;308.10;2304.00
70151;DHT22;57517;43.562;19.540;2022-12-07T14:40:36;308.10;2304.00
70151;DHT22;57517;43.562;19.540;2022-12-07T14:43:09;308.10;2304.00
70151;DHT22;57517;43.562;19.540;2022-12-07T14:45:37;308.10;2304.00
70151;DHT22;57517;43.562;19.540;2022-12-07T14:48:03;308.10;2304.00
70151;DHT22;57517;43.562;19.540;2022-12-07T14:50:29;308.10;2304.00
70151;DHT22;57517;43.562;19.540;2022-12-07T14:53:13;332.80;2329.60
70151;DHT22;57517;43.562;19.540;2022-12-07T14:55:39;332.80;2329.60
70151;DHT22;57517;43.562;19.540;2022-12-07T14:58:05;332.80;2329.60
70151;DHT22;57517;43.562;19.540;2022-12-07T15:00:31;332.80;2329.60
70151;DHT22;57517;43.562;19.540;2022-12-07T15:02:58;332.80;2329.60
70151;DHT22;57517;43.562;19.540;2022-12-07T15:05:24;332.80;2329.60
70151;DHT22;57517;43.562;19.540;2022-12-07T15:07:51;332.80;2329.60
70151;DHT22;57517;43.562;19.540;2022-12-07T15:10:21;332.80;2329.60
70151;DHT22;57517;43.562;19.540;2022-12-07T15:12:47;332.80;2329.60
70151;DHT22;57517;43.562;19.540;2022-12-07T15:15:13;332.90;2329.60
70151;DHT22;57517;43.562;19.540;2022-12-07T15:17:39;332.90;2329.60
70151;DHT22;57517;43.562;19.540;2022-12-07T15:20:07;332.90;2329.60
70151;DHT22;57517;43.562;19.540;2022-12-07T15:22:33;332.90;2329.60
70151;DHT22;57517;43.562;19.540;2022-12-07T15:24:59;333.00;2329.60
70151;DHT22;57517;43.562;19.540;2022-12-07T15:27:25;333.00;2329.60
70151;DHT22;57517;43.562;19.540;2022-12-07T15:29:51;333.00;2329.60
70151;DHT22;57517;43.562;19.540;2022-12-07T15:32:16;333.00;2329.60
70151;DHT22;57517;43.562;19.540;2022-12-07T15:34:42;333.00;2329.60
70151;DHT22;57517;43.562;19.540;2022-12-07T15:37:08;333.00;2329.60
70151;DHT22;57517;43.562;19.540;2022-12-07T15:39:35;333.00;2329.60
70151;DHT22;57517;43.562;19.540;2022-12-07T15:42:01;333.10;2329.60
70151;DHT22;57517;43.562;19.540;2022-12-07T15:44:27;333.00;2329.60
70151;DHT22;57517;43.562;19.540;2022-12-07T15:47:11;333.10;2329.60
70151;DHT22;57517;43.562;19.540;2022-12-07T15:49:37;333.00;2329.60
70151;DHT22;57517;43.562;19.540;2022-12-07T15:52:03;333.00;2329.60
70151;DHT22;57517;43.562;19.540;2022-12-07T15:54:29;333.00;2329.60
70151;DHT22;57517;43.562;19.540;2022-12-07T15:56:56;333.00;2329.60
70151;DHT22;57517;43.562;19.540;2022-12-07T15:59:22;333.00;2329.60
70151;DHT22;57517;43.562;19.540;2022-12-07T16:01:48;333.00;2329.60
70151;DHT22;57517;43.562;19.540;2022-12-07T16:04:14;333.00;2329.60
70151;DHT22;57517;43.562;19.540;2022-12-07T16:06:40;332.90;2329.60
70151;DHT22;57517;43.562;19.540;2022-12-07T16:09:06;332.80;2329.60
70151;DHT22;57517;43.562;19.540;2022-12-07T16:11:32;332.80;2329.60
70151;DHT22;57517;43.562;19.540;2022-12-07T16:13:58;332.80;2329.60
70151;DHT22;57517;43.562;19.540;2022-12-07T16:16:23;308.10;2304.00
70151;DHT22;57517;43.562;19.540;2022-12-07T16:18:50;308.10;2304.00
70151;DHT22;57517;43.562;19.540;2022-12-07T16:21:17;308.10;2304.00
70151;DHT22;57517;43.562;19.540;2022-12-07T16:23:43;308.10;2304.00
70151;DHT22;57517;43.562;19.540;2022-12-07T16:26:15;308.10;2304.00
70151;DHT22;57517;43.562;19.540;2022-12-07T16:28:41;308.10;2304.00
70151;DHT22;57517;43.562;19.540;2022-12-07T16:31:15;308.10;2304.00
70151;DHT22;57517;43.562;19.540;2022-12-07T16:33:43;308.10;2304.00
70151;DHT22;57517;43.562;19.540;2022-12-07T16:36:10;308.10;2304.00
70151;DHT22;57517;43.562;19.540;2022-12-07T16:38:37;308.10;2304.00
70151;DHT22;57517;43.562;19.540;2022-12-07T16:41:05;308.10;2304.00
70151;DHT22;57517;43.562;19.540;2022-12-07T16:43:32;308.10;2304.00
70151;DHT22;57517;43.562;19.540;2022-12-07T16:45:58;308.10;2304.00
70151;DHT22;57517;43.562;19.540;2022-12-07T16:48:23;308.10;2304.00
70151;DHT22;57517;43.562;19.540;2022-12-07T16:50:49;308.10;2304.00
70151;DHT22;57517;43.562;19.540;2022-12-07T16:53:15;308.10;2304.00